createdAt,value
2023-05-17T00:01:12.000Z,1
2023-05-17T00:02:28.548Z,1.2
2023-05-17T00:03:44.683Z,1.5
2023-05-17T00:05:00.810Z,1.7
2023-05-17T00:06:16.936Z,1.3
2023-05-17T00:07:33.076Z,1
2023-05-17T00:08:49.215Z,0.8
2023-05-17T00:10:05.353Z,0.8
2023-05-17T00:11:21.478Z,1.3
2023-05-17T00:12:37.624Z,1.1
2023-05-17T00:13:53.758Z,1
2023-05-17T00:15:09.906Z,1
2023-05-17T00:16:26.102Z,0.7
2023-05-17T00:17:41.324Z,1.1
2023-05-17T00:18:56.533Z,1
2023-05-17T00:20:12.672Z,1.3
2023-05-17T00:21:28.812Z,0.8
2023-05-17T00:22:44.939Z,1.1
2023-05-17T00:24:01.070Z,1.2
2023-05-17T00:25:17.225Z,1.2
2023-05-17T00:26:33.345Z,0.7
2023-05-17T00:27:49.479Z,1.2
2023-05-17T00:29:05.609Z,1.2
2023-05-17T00:30:21.748Z,1.5
2023-05-17T00:31:37.895Z,0.9
2023-05-17T00:32:54.028Z,1.2
2023-05-17T00:34:10.173Z,0.9
2023-05-17T00:35:26.291Z,0.9
2023-05-17T00:36:42.434Z,1.6
2023-05-17T00:37:58.573Z,1.2
2023-05-17T00:39:14.704Z,1.7
2023-05-17T00:40:30.841Z,1
2023-05-17T00:41:46.969Z,0.8
2023-05-17T00:43:03.113Z,0.9
2023-05-17T00:44:19.247Z,1.9
2023-05-17T00:45:35.383Z,1
2023-05-17T00:46:51.530Z,0.8
2023-05-17T00:48:07.659Z,0.8
2023-05-17T00:49:23.796Z,1.9
2023-05-17T00:50:39.988Z,1.2
2023-05-17T00:51:55.240Z,0.9
2023-05-17T00:53:10.438Z,1.2
2023-05-17T00:54:26.586Z,1.1
2023-05-17T00:55:42.709Z,0.7
2023-05-17T00:56:58.848Z,1
2023-05-17T00:58:14.982Z,1.2
2023-05-17T00:59:31.107Z,1
2023-05-17T01:00:47.261Z,1
2023-05-17T01:02:03.402Z,1
2023-05-17T01:03:19.539Z,1.3
2023-05-17T01:04:35.671Z,1.3
2023-05-17T01:05:51.786Z,1.3
2023-05-17T01:07:07.953Z,1
2023-05-17T01:08:24.081Z,1.1
2023-05-17T01:09:40.204Z,0.8
2023-05-17T01:10:56.339Z,1.1
2023-05-17T01:12:12.469Z,0.9
2023-05-17T01:13:28.622Z,1.2
2023-05-17T01:14:44.759Z,1.3
2023-05-17T01:16:00.897Z,1.5
2023-05-17T01:17:17.022Z,1.2
2023-05-17T01:18:33.159Z,1.1
2023-05-17T01:19:49.296Z,1.2
2023-05-17T01:21:05.442Z,0.8
2023-05-17T01:22:21.575Z,0.7
2023-05-17T01:23:37.697Z,1
2023-05-17T01:24:53.899Z,0.9
2023-05-17T01:26:09.135Z,1.1
2023-05-17T01:27:25.315Z,0.9
2023-05-17T01:28:41.521Z,1.5
2023-05-17T01:29:56.730Z,1.1
2023-05-17T01:31:12.860Z,1.2
2023-05-17T01:32:28.985Z,1.2
2023-05-17T01:33:45.130Z,1.8
2023-05-17T01:35:01.264Z,1.2
2023-05-17T01:36:17.407Z,1.1
2023-05-17T01:37:33.000Z,1.1
2023-05-17T01:38:49.662Z,1.2
2023-05-17T01:40:05.801Z,1.2
2023-05-17T01:41:21.926Z,1.1
2023-05-17T01:42:38.085Z,1.1
2023-05-17T01:43:54.210Z,1.2
2023-05-17T01:45:10.339Z,1.1
2023-05-17T01:46:26.483Z,0.9
2023-05-17T01:47:42.624Z,1.4
2023-05-17T01:48:58.768Z,1
2023-05-17T01:50:14.891Z,0.8
2023-05-17T01:51:31.039Z,0.9
2023-05-17T01:52:47.152Z,1.4
2023-05-17T01:54:03.304Z,1
2023-05-17T01:55:19.446Z,1
2023-05-17T01:56:35.585Z,1.3
2023-05-17T01:57:51.705Z,1
2023-05-17T01:59:07.846Z,1.4
2023-05-17T02:00:23.975Z,1.2
2023-05-17T02:01:40.183Z,1.5
2023-05-17T02:02:55.395Z,2.1
2023-05-17T02:04:10.536Z,0.9
2023-05-17T02:05:26.693Z,1.1
2023-05-17T02:06:42.813Z,1.3
2023-05-17T02:07:58.944Z,0.9
2023-05-17T02:09:15.080Z,1
2023-05-17T02:10:31.223Z,1.3
2023-05-17T02:13:03.501Z,1.2
2023-05-17T02:14:19.633Z,1
2023-05-17T02:15:35.769Z,1.1
2023-05-17T02:16:51.895Z,1.5
2023-05-17T02:18:08.041Z,1.9
2023-05-17T02:19:24.184Z,1.7
2023-05-17T02:20:40.310Z,1.2
2023-05-17T02:21:56.438Z,1.2
2023-05-17T02:23:12.589Z,1.2
2023-05-17T02:24:28.726Z,1.1
2023-05-17T02:25:44.866Z,1.1
2023-05-17T02:27:00.996Z,1
2023-05-17T02:28:17.126Z,1.1
2023-05-17T02:29:33.258Z,1.1
2023-05-17T02:30:49.407Z,1.3
2023-05-17T02:32:05.540Z,1
2023-05-17T02:33:21.682Z,1.2
2023-05-17T02:34:37.797Z,1.1
2023-05-17T02:35:53.932Z,1.1
2023-05-17T02:37:10.080Z,1.6
2023-05-17T02:38:26.216Z,1.1
2023-05-17T02:39:42.350Z,1.3
2023-05-17T02:40:58.488Z,1.2
2023-05-17T02:42:14.615Z,1.1
2023-05-17T02:43:30.764Z,1.4
2023-05-17T02:44:46.896Z,1.3
2023-05-17T02:46:03.036Z,1.6
2023-05-17T02:47:19.165Z,1.2
2023-05-17T02:48:35.306Z,1
2023-05-17T02:49:51.451Z,1.2
2023-05-17T02:51:07.737Z,1.2
2023-05-17T02:52:23.854Z,1
2023-05-17T02:53:39.991Z,1.1
2023-05-17T02:54:56.125Z,1.2
2023-05-17T02:56:12.281Z,1.3
2023-05-17T02:57:28.417Z,2
2023-05-17T02:58:44.536Z,1.1
2023-05-17T03:00:00.680Z,1.1
2023-05-17T03:01:16.806Z,1
2023-05-17T03:02:32.950Z,1.4
2023-05-17T03:03:49.089Z,1.2
2023-05-17T03:05:05.223Z,1.1
2023-05-17T03:06:21.351Z,0.9
2023-05-17T03:07:37.493Z,1.1
2023-05-17T03:08:53.637Z,1.2
2023-05-17T03:10:09.772Z,1.6
2023-05-17T03:11:25.904Z,1.3
2023-05-17T03:12:42.029Z,1.1
2023-05-17T03:13:58.173Z,1.3
2023-05-17T03:15:14.315Z,1.4
2023-05-17T03:16:30.437Z,1.6
2023-05-17T03:17:46.571Z,1.2
2023-05-17T03:19:02.714Z,1.4
2023-05-17T03:20:19.002Z,1
2023-05-17T03:21:35.144Z,1.2
2023-05-17T03:22:51.262Z,1.3
2023-05-17T03:24:07.403Z,1.3
2023-05-17T03:25:23.530Z,1
2023-05-17T03:26:39.667Z,1.4
2023-05-17T03:27:55.815Z,1.3
2023-05-17T03:29:11.957Z,1.1
2023-05-17T03:30:28.079Z,1.7
2023-05-17T03:31:44.213Z,1
2023-05-17T03:33:00.350Z,1.2
2023-05-17T03:34:16.496Z,1.2
2023-05-17T03:35:32.624Z,1.3
2023-05-17T03:36:48.770Z,1.1
2023-05-17T03:38:04.887Z,1.5
2023-05-17T03:39:21.029Z,1.1
2023-05-17T03:40:37.168Z,1.1
2023-05-17T03:41:53.301Z,1.3
2023-05-17T03:43:09.434Z,1.2
2023-05-17T03:44:25.577Z,1.1
2023-05-17T03:45:41.705Z,1.1
2023-05-17T03:46:57.854Z,1.2
2023-05-17T03:48:13.986Z,1.1
2023-05-17T03:49:30.120Z,1.1
2023-05-17T03:50:46.254Z,1.6
2023-05-17T03:52:02.441Z,1.2
2023-05-17T03:53:17.706Z,1.2
2023-05-17T03:54:32.915Z,1.3
2023-05-17T03:55:49.036Z,1
2023-05-17T03:57:05.195Z,1.7
2023-05-17T03:58:21.323Z,1.3
2023-05-17T03:59:37.462Z,1.5
2023-05-17T04:00:53.587Z,1.1
2023-05-17T04:02:09.731Z,0.9
2023-05-17T04:03:25.879Z,1.5
2023-05-17T04:04:42.004Z,1.4
2023-05-17T04:05:58.143Z,1.4
2023-05-17T04:07:14.272Z,1
2023-05-17T04:08:30.412Z,1.7
2023-05-17T04:09:46.547Z,1.2
2023-05-17T04:11:02.679Z,1.5
2023-05-17T04:12:18.813Z,0.9
2023-05-17T04:13:34.945Z,1.1
2023-05-17T04:14:51.084Z,1.3
2023-05-17T04:16:07.240Z,1.2
2023-05-17T04:17:23.364Z,1.6
2023-05-17T04:18:39.500Z,0.9
2023-05-17T04:19:55.643Z,1.4
2023-05-17T04:21:11.757Z,0.8
2023-05-17T04:22:27.920Z,1.1
2023-05-17T04:23:44.051Z,1.7
2023-05-17T04:25:00.183Z,1.3
2023-05-17T04:26:16.365Z,1.3
2023-05-17T04:27:31.609Z,1.1
2023-05-17T04:28:46.836Z,1.1
2023-05-17T04:30:01.975Z,1.2
2023-05-17T04:31:18.121Z,1.1
2023-05-17T04:32:34.252Z,0.9
2023-05-17T04:33:50.375Z,1.3
2023-05-17T04:35:06.506Z,1
2023-05-17T04:36:22.645Z,1.2
2023-05-17T04:37:38.787Z,1.4
2023-05-17T04:38:54.933Z,1.2
2023-05-17T04:40:11.063Z,1.3
2023-05-17T04:41:27.197Z,1.1
2023-05-17T04:42:43.328Z,1.5
2023-05-17T04:43:59.485Z,0.9
2023-05-17T04:45:15.613Z,1.2
2023-05-17T04:46:31.736Z,1.3
2023-05-17T04:47:47.881Z,1.5
2023-05-17T04:49:04.003Z,1.4
2023-05-17T04:50:20.161Z,1.2
2023-05-17T04:51:36.284Z,1.9
2023-05-17T04:52:52.417Z,1.6
2023-05-17T04:54:08.559Z,1.2
2023-05-17T04:55:24.691Z,1.4
2023-05-17T04:56:40.837Z,1.8
2023-05-17T04:57:56.970Z,1.4
2023-05-17T04:59:13.113Z,1.2
2023-05-17T05:00:29.235Z,1.5
2023-05-17T05:01:45.373Z,1.3
2023-05-17T05:03:01.523Z,1
2023-05-17T05:04:17.658Z,1.9
2023-05-17T05:05:33.786Z,1.5
2023-05-17T05:06:49.913Z,1.5
2023-05-17T05:08:06.048Z,1.6
2023-05-17T05:09:22.203Z,1.5
2023-05-17T05:10:38.332Z,1.4
2023-05-17T05:11:54.470Z,1.3
2023-05-17T05:13:10.596Z,1.4
2023-05-17T05:14:26.728Z,4
2023-05-17T05:15:42.883Z,2.5
2023-05-17T05:16:59.060Z,1
2023-05-17T05:18:14.313Z,1.6
2023-05-17T05:19:29.522Z,1.7
2023-05-17T05:20:45.656Z,1.3
2023-05-17T05:22:01.786Z,1.6
2023-05-17T05:23:17.921Z,1.6
2023-05-17T05:24:34.041Z,3.3
2023-05-17T05:25:50.186Z,2
2023-05-17T05:27:06.328Z,2.4
2023-05-17T05:28:22.450Z,5.1
2023-05-17T05:29:38.598Z,1.6
2023-05-17T05:30:54.733Z,1.9
2023-05-17T05:32:10.874Z,1.7
2023-05-17T05:33:27.009Z,1.4
2023-05-17T05:34:43.148Z,1.7
2023-05-17T05:35:59.262Z,2.1
2023-05-17T05:37:15.403Z,1.4
2023-05-17T05:38:31.559Z,2.1
2023-05-17T05:39:47.677Z,1.7
2023-05-17T05:41:03.810Z,1.9
2023-05-17T05:42:19.945Z,2
2023-05-17T05:43:36.086Z,1.9
2023-05-17T05:44:52.242Z,1.4
2023-05-17T05:46:08.367Z,1.8
2023-05-17T05:47:24.508Z,2.1
2023-05-17T05:48:40.633Z,1.7
2023-05-17T05:49:56.774Z,1.7
2023-05-17T05:51:12.979Z,2.5
2023-05-17T05:52:28.218Z,1.5
2023-05-17T05:53:44.412Z,1.7
2023-05-17T05:54:59.606Z,1.5
2023-05-17T05:56:15.747Z,1.7
2023-05-17T05:57:31.871Z,1.5
2023-05-17T05:58:48.000Z,1.8
2023-05-17T06:00:04.149Z,2.3
2023-05-17T06:01:20.286Z,2.1
2023-05-17T06:02:36.418Z,2
2023-05-17T06:03:52.555Z,1.9
2023-05-17T06:05:08.683Z,1.6
2023-05-17T06:06:24.828Z,2.8
2023-05-17T06:07:40.973Z,2.2
2023-05-17T06:08:57.105Z,2
2023-05-17T06:10:13.232Z,1.9
2023-05-17T06:11:29.368Z,2.2
2023-05-17T06:12:45.496Z,2.7
2023-05-17T06:14:01.662Z,2.8
2023-05-17T06:15:17.794Z,1.4
2023-05-17T06:16:33.926Z,2.4
2023-05-17T06:17:50.061Z,2.8
2023-05-17T06:19:06.182Z,2
2023-05-17T06:20:22.340Z,2.3
2023-05-17T06:21:38.617Z,3
2023-05-17T06:22:54.754Z,1.8
2023-05-17T06:24:10.878Z,2.5
2023-05-17T06:25:27.022Z,2.6
2023-05-17T06:26:43.159Z,3.7
2023-05-17T06:27:59.304Z,2.2
2023-05-17T06:29:15.423Z,1.9
2023-05-17T06:30:31.567Z,1.7
2023-05-17T06:31:47.704Z,2.3
2023-05-17T06:33:03.838Z,1.9
2023-05-17T06:34:19.971Z,2.9
2023-05-17T06:35:36.109Z,2.1
2023-05-17T06:36:52.239Z,3.2
2023-05-17T06:38:08.388Z,2.7
2023-05-17T06:39:24.529Z,2.6
2023-05-17T06:40:40.660Z,3
2023-05-17T06:41:56.793Z,3
2023-05-17T06:43:12.923Z,2.5
2023-05-17T06:44:29.058Z,3.4
2023-05-17T06:45:45.216Z,2.8
2023-05-17T06:47:01.339Z,2.6
2023-05-17T06:48:17.467Z,3.5
2023-05-17T06:49:33.609Z,3.7
2023-05-17T06:50:49.734Z,2.5
2023-05-17T06:52:05.884Z,3.2
2023-05-17T06:53:22.080Z,4.2
2023-05-17T06:54:37.295Z,3.9
2023-05-17T06:55:53.420Z,7.8
2023-05-17T06:57:09.569Z,2.9
2023-05-17T06:58:25.698Z,2.8
2023-05-17T06:59:41.829Z,3.6
2023-05-17T07:00:57.969Z,4.7
2023-05-17T07:02:14.102Z,3.9
2023-05-17T07:03:30.252Z,3.3
2023-05-17T07:04:46.376Z,4.4
2023-05-17T07:06:02.515Z,4.6
2023-05-17T07:07:18.651Z,3.6
2023-05-17T07:08:34.782Z,5.9
2023-05-17T07:09:50.935Z,4.9
2023-05-17T07:11:07.069Z,7.1
2023-05-17T07:12:23.196Z,4.7
2023-05-17T07:13:39.339Z,6.3
2023-05-17T07:14:55.461Z,4
2023-05-17T07:16:11.618Z,4.3
2023-05-17T07:17:27.737Z,5.3
2023-05-17T07:18:43.889Z,4.1
2023-05-17T07:20:00.007Z,4.5
2023-05-17T07:21:16.142Z,3.7
2023-05-17T07:22:32.297Z,3.6
2023-05-17T07:23:48.421Z,6.6
2023-05-17T07:25:04.553Z,4.8
2023-05-17T07:26:20.744Z,5.3
2023-05-17T07:27:35.969Z,5.8
2023-05-17T07:28:52.103Z,5.9
2023-05-17T07:30:08.227Z,5.9
2023-05-17T07:31:24.357Z,4
2023-05-17T07:32:40.496Z,4.9
2023-05-17T07:33:56.635Z,7.1
2023-05-17T07:35:12.781Z,6
2023-05-17T07:36:28.910Z,6.8
2023-05-17T07:37:45.047Z,5.5
2023-05-17T07:39:01.172Z,3.7
2023-05-17T07:40:17.329Z,5.7
2023-05-17T07:41:33.461Z,5.9
2023-05-17T07:42:49.585Z,5
2023-05-17T07:44:05.725Z,5.1
2023-05-17T07:45:21.846Z,5.3
2023-05-17T07:46:38.010Z,3.4
2023-05-17T07:47:54.132Z,5.4
2023-05-17T07:49:10.276Z,5.3
2023-05-17T07:50:26.406Z,7.2
2023-05-17T07:51:42.544Z,5.4
2023-05-17T07:52:58.691Z,8.4
2023-05-17T07:54:14.815Z,5.2
2023-05-17T07:55:30.950Z,4.2
2023-05-17T07:56:47.087Z,4.4
2023-05-17T07:58:03.225Z,5.3
2023-05-17T07:59:19.420Z,4.4
2023-05-17T08:00:34.658Z,4.6
2023-05-17T08:01:49.868Z,4.6
2023-05-17T08:03:06.019Z,6.1
2023-05-17T08:04:22.153Z,3.9
2023-05-17T08:05:38.288Z,4
2023-05-17T08:06:54.423Z,5.9
2023-05-17T08:08:10.560Z,4.9
2023-05-17T08:09:26.692Z,5
2023-05-17T08:11:58.959Z,5.5
2023-05-17T08:13:15.095Z,5.1
2023-05-17T08:14:31.233Z,5.1
2023-05-17T08:15:47.378Z,3.7
2023-05-17T08:17:03.517Z,3.6
2023-05-17T08:18:19.650Z,3.3
2023-05-17T08:19:35.790Z,3.4
2023-05-17T08:20:51.920Z,5.6
2023-05-17T08:22:08.062Z,4.5
2023-05-17T08:23:24.198Z,3
2023-05-17T08:24:40.329Z,3.9
2023-05-17T08:25:56.459Z,4
2023-05-17T08:27:12.587Z,3.5
2023-05-17T08:28:28.746Z,3.4
2023-05-17T08:29:44.876Z,3.6
2023-05-17T08:31:01.015Z,4.1
2023-05-17T08:32:17.141Z,6.6
2023-05-17T08:33:33.000Z,4.5
2023-05-17T08:34:48.596Z,3.7
2023-05-17T08:36:03.808Z,4.5
2023-05-17T08:37:19.944Z,3.2
2023-05-17T08:38:36.076Z,4
2023-05-17T08:39:52.221Z,3.9
2023-05-17T08:41:08.347Z,3.9
2023-05-17T08:42:24.492Z,4.1
2023-05-17T08:43:40.612Z,4.7
2023-05-17T08:44:56.761Z,3.8
2023-05-17T08:46:12.893Z,4
2023-05-17T08:47:29.039Z,3.5
2023-05-17T08:48:45.168Z,3.8
2023-05-17T08:50:01.306Z,3.3
2023-05-17T08:51:17.454Z,4.2
2023-05-17T08:52:33.577Z,3.8
2023-05-17T08:53:49.714Z,4.4
2023-05-17T08:55:05.844Z,3
2023-05-17T08:56:21.977Z,2.6
2023-05-17T08:57:38.138Z,5.1
2023-05-17T08:58:54.255Z,3.9
2023-05-17T09:00:10.406Z,4.9
2023-05-17T09:01:26.534Z,3
2023-05-17T09:02:42.668Z,3
2023-05-17T09:03:58.818Z,2.9
2023-05-17T09:05:14.942Z,4.6
2023-05-17T09:06:31.076Z,4
2023-05-17T09:07:47.263Z,3.3
2023-05-17T09:09:02.518Z,3.3
2023-05-17T09:10:18.707Z,4.6
2023-05-17T09:11:33.913Z,3.4
2023-05-17T09:12:50.035Z,3.9
2023-05-17T09:14:06.190Z,3.4
2023-05-17T09:15:22.324Z,2.7
2023-05-17T09:16:38.463Z,4.2
2023-05-17T09:17:54.588Z,3.4
2023-05-17T09:19:10.732Z,4.6
2023-05-17T09:20:26.868Z,4.3
2023-05-17T09:21:42.998Z,3.5
2023-05-17T09:22:59.131Z,4
2023-05-17T09:24:15.268Z,4.2
2023-05-17T09:25:31.401Z,2.6
2023-05-17T09:26:47.546Z,3.3
2023-05-17T09:28:03.691Z,4.5
2023-05-17T09:29:19.818Z,2.5
2023-05-17T09:30:35.960Z,2.9
2023-05-17T09:31:52.086Z,3.6
2023-05-17T09:33:08.245Z,3.1
2023-05-17T09:34:24.373Z,3.6
2023-05-17T09:35:40.512Z,3.4
2023-05-17T09:36:56.642Z,5
2023-05-17T09:38:12.763Z,3.5
2023-05-17T09:39:28.922Z,2.6
2023-05-17T09:42:01.189Z,4.2
2023-05-17T09:43:17.379Z,3.4
2023-05-17T09:44:32.615Z,2.3
2023-05-17T09:45:47.823Z,4.4
2023-05-17T09:47:02.975Z,2.5
2023-05-17T09:48:19.130Z,3.9
2023-05-17T09:49:35.256Z,3.6
2023-05-17T09:50:51.393Z,2.9
2023-05-17T09:52:07.537Z,3.9
2023-05-17T09:53:23.671Z,2.8
2023-05-17T09:54:39.819Z,2.7
2023-05-17T09:55:55.937Z,2.7
2023-05-17T09:57:12.088Z,2.7
2023-05-17T09:58:28.208Z,3.4
2023-05-17T09:59:44.348Z,3.2
2023-05-17T10:01:00.501Z,2.1
2023-05-17T10:02:16.633Z,2.6
2023-05-17T10:03:32.764Z,4.1
2023-05-17T10:04:48.893Z,2.6
2023-05-17T10:06:05.028Z,2.8
2023-05-17T10:07:21.181Z,4.2
2023-05-17T10:08:37.314Z,2.8
2023-05-17T10:09:53.448Z,2.6
2023-05-17T10:11:09.587Z,2.6
2023-05-17T10:12:25.721Z,2.8
2023-05-17T10:13:41.868Z,2.2
2023-05-17T10:16:14.136Z,3.7
2023-05-17T10:17:30.261Z,2.2
2023-05-17T10:18:46.400Z,2.6
2023-05-17T10:20:02.560Z,3.2
2023-05-17T10:21:18.691Z,3.2
2023-05-17T10:22:34.813Z,4.2
2023-05-17T10:23:50.964Z,2.1
2023-05-17T10:25:07.096Z,2.2
2023-05-17T10:26:23.234Z,3.7
2023-05-17T10:27:39.372Z,3.1
2023-05-17T10:28:55.503Z,2.7
2023-05-17T10:30:11.638Z,4
2023-05-17T10:31:27.775Z,4.4
2023-05-17T10:32:43.922Z,3.8
2023-05-17T10:34:00.114Z,3
2023-05-17T10:35:15.354Z,3.6
2023-05-17T10:36:30.567Z,4.2
2023-05-17T10:37:46.709Z,2.5
2023-05-17T10:39:02.833Z,2.5
2023-05-17T10:40:18.979Z,2.4
2023-05-17T10:41:35.107Z,2.5
2023-05-17T10:42:51.245Z,2.5
2023-05-17T10:44:07.396Z,2
2023-05-17T10:45:23.511Z,2.4
2023-05-17T10:46:39.653Z,3.1
2023-05-17T10:47:55.792Z,3.7
2023-05-17T10:49:11.928Z,3.5
2023-05-17T10:50:28.061Z,3.2
2023-05-17T10:51:44.208Z,4.2
2023-05-17T10:53:00.348Z,1.9
2023-05-17T10:54:16.466Z,2.9
2023-05-17T10:55:32.614Z,2.1
2023-05-17T10:56:48.755Z,2.7
2023-05-17T10:58:04.899Z,3.2
2023-05-17T10:59:21.025Z,2.5
2023-05-17T11:00:37.151Z,3.1
2023-05-17T11:01:53.308Z,2.5
2023-05-17T11:03:09.434Z,3
2023-05-17T11:04:25.584Z,4
2023-05-17T11:05:41.717Z,5.5
2023-05-17T11:06:57.851Z,4.6
2023-05-17T11:08:14.050Z,4
2023-05-17T11:09:29.296Z,4.3
2023-05-17T11:10:44.500Z,3.7
2023-05-17T11:12:00.653Z,4.6
2023-05-17T11:13:16.775Z,4.1
2023-05-17T11:14:32.908Z,4.5
2023-05-17T11:15:49.051Z,4.7
2023-05-17T11:17:05.177Z,4
2023-05-17T11:18:21.334Z,4.4
2023-05-17T11:19:37.474Z,4.2
2023-05-17T11:20:53.599Z,3.8
2023-05-17T11:22:09.736Z,5.2
2023-05-17T11:23:25.872Z,5.1
2023-05-17T11:24:42.015Z,5.8
2023-05-17T11:25:58.150Z,6
2023-05-17T11:27:14.296Z,3.8
2023-05-17T11:28:30.426Z,4.7
2023-05-17T11:29:46.550Z,4.5
2023-05-17T11:31:02.705Z,5.7
2023-05-17T11:32:18.844Z,4.1
2023-05-17T11:33:34.982Z,4.5
2023-05-17T11:34:51.114Z,4.3
2023-05-17T11:36:07.234Z,6
2023-05-17T11:37:23.384Z,3.2
2023-05-17T11:38:39.515Z,6.1
2023-05-17T11:39:55.668Z,6.3
2023-05-17T11:41:11.789Z,5.9
2023-05-17T11:42:27.984Z,5.3
2023-05-17T11:43:43.223Z,3.9
2023-05-17T11:44:59.413Z,5.8
2023-05-17T11:46:14.619Z,4.6
2023-05-17T11:47:30.770Z,5.2
2023-05-17T11:48:46.904Z,5.7
2023-05-17T11:50:03.035Z,4.6
2023-05-17T11:51:19.170Z,6.6
2023-05-17T11:52:35.302Z,3.3
2023-05-17T11:53:51.453Z,3.7
2023-05-17T11:55:07.584Z,5.9
2023-05-17T11:56:23.717Z,4.2
2023-05-17T11:57:39.857Z,4.6
2023-05-17T11:58:55.993Z,3.4
2023-05-17T12:00:12.134Z,6
2023-05-17T12:01:28.275Z,5.3
2023-05-17T12:02:44.406Z,4.6
2023-05-17T12:04:00.535Z,4.5
2023-05-17T12:05:16.675Z,4.2
2023-05-17T12:06:32.817Z,3.3
2023-05-17T12:07:48.939Z,4.7
2023-05-17T12:09:05.090Z,3.7
2023-05-17T12:10:21.215Z,5.4
2023-05-17T12:11:37.355Z,4.5
2023-05-17T12:12:53.505Z,4.2
2023-05-17T12:14:09.628Z,4.7
2023-05-17T12:15:25.759Z,3.5
2023-05-17T12:16:41.893Z,5.7
2023-05-17T12:17:58.092Z,6.1
2023-05-17T12:19:13.336Z,3.9
2023-05-17T12:20:28.538Z,3.7
2023-05-17T12:21:44.676Z,3.9
2023-05-17T12:23:00.813Z,3.5
2023-05-17T12:24:16.960Z,5.8
2023-05-17T12:25:33.093Z,5.2
2023-05-17T12:26:49.224Z,4.5
2023-05-17T12:28:05.342Z,5.4
2023-05-17T12:29:21.491Z,2.9
2023-05-17T12:30:37.642Z,3.9
2023-05-17T12:31:53.759Z,3.7
2023-05-17T12:33:09.890Z,4.6
2023-05-17T12:34:26.032Z,4.2
2023-05-17T12:35:42.187Z,5
2023-05-17T12:36:58.320Z,4.5
2023-05-17T12:38:14.437Z,3.3
2023-05-17T12:39:30.586Z,4
2023-05-17T12:40:46.708Z,3.8
2023-05-17T12:42:02.857Z,5.7
2023-05-17T12:43:18.999Z,6.1
2023-05-17T12:44:35.131Z,3.8
2023-05-17T12:45:51.261Z,5.2
2023-05-17T12:47:07.396Z,5.2
2023-05-17T12:48:23.544Z,3.9
2023-05-17T12:49:39.686Z,4.4
2023-05-17T12:50:55.806Z,3.9
2023-05-17T12:52:12.003Z,4.9
2023-05-17T12:53:27.258Z,5.1
2023-05-17T12:54:42.471Z,4.8
2023-05-17T12:55:57.618Z,3.5
2023-05-17T12:57:13.759Z,4.1
2023-05-17T12:58:29.907Z,3.7
2023-05-17T12:59:46.029Z,4.7
2023-05-17T13:01:02.179Z,7.2
2023-05-17T13:02:18.304Z,5.1
2023-05-17T13:03:34.452Z,4.4
2023-05-17T13:04:50.576Z,3.1
2023-05-17T13:06:06.713Z,3.5
2023-05-17T13:07:22.843Z,4.2
2023-05-17T13:08:38.979Z,4.8
2023-05-17T13:09:55.139Z,4.1
2023-05-17T13:11:11.268Z,4.5
2023-05-17T13:12:27.393Z,3.7
2023-05-17T13:13:43.542Z,3.2
2023-05-17T13:14:59.661Z,5.1
2023-05-17T13:16:15.822Z,3.6
2023-05-17T13:17:31.954Z,5
2023-05-17T13:18:48.086Z,3.4
2023-05-17T13:20:04.213Z,2.7
2023-05-17T13:21:20.339Z,3
2023-05-17T13:22:36.506Z,3.1
2023-05-17T13:23:52.624Z,3.4
2023-05-17T13:25:08.770Z,3.8
2023-05-17T13:26:24.887Z,3.6
2023-05-17T13:27:41.027Z,3.2
2023-05-17T13:28:57.175Z,3.6
2023-05-17T13:30:13.309Z,3.9
2023-05-17T13:31:29.445Z,3.7
2023-05-17T13:32:45.587Z,3.5
2023-05-17T13:34:01.707Z,3.8
2023-05-17T13:35:17.849Z,3.4
2023-05-17T13:36:34.000Z,3.9
2023-05-17T13:37:50.128Z,3.3
2023-05-17T13:39:06.267Z,3
2023-05-17T13:40:22.397Z,3.4
2023-05-17T13:41:38.533Z,2.7
2023-05-17T13:42:54.734Z,3.5
2023-05-17T13:44:09.966Z,2.9
2023-05-17T13:45:25.170Z,3.7
2023-05-17T13:46:41.312Z,4.7
2023-05-17T13:47:57.444Z,4
2023-05-17T13:49:13.575Z,2.3
2023-05-17T13:50:29.712Z,2.4
2023-05-17T13:51:45.871Z,2.3
2023-05-17T13:53:02.000Z,3.7
2023-05-17T13:54:18.131Z,2.7
2023-05-17T13:55:34.271Z,3.8
2023-05-17T13:56:50.387Z,2.7
2023-05-17T13:58:06.533Z,2.3
2023-05-17T13:59:22.668Z,2.4
2023-05-17T14:00:38.800Z,3.9
2023-05-17T14:03:11.081Z,3.7
2023-05-17T14:04:27.227Z,2.8
2023-05-17T14:05:43.349Z,4.3
2023-05-17T14:06:59.494Z,3.5
2023-05-17T14:08:15.624Z,2.7
2023-05-17T14:09:31.746Z,2.9
2023-05-17T14:10:47.911Z,2.4
2023-05-17T14:12:04.035Z,4.6
2023-05-17T14:13:20.167Z,3.6
2023-05-17T14:14:36.308Z,3.1
2023-05-17T14:15:52.431Z,3.1
2023-05-17T14:17:08.642Z,2.7
2023-05-17T14:18:23.881Z,3.1
2023-05-17T14:19:40.073Z,3
2023-05-17T14:20:55.285Z,3
2023-05-17T14:22:11.406Z,2.3
2023-05-17T14:23:27.540Z,3.8
2023-05-17T14:24:43.680Z,2.5
2023-05-17T14:25:59.810Z,3.5
2023-05-17T14:27:15.954Z,3.9
2023-05-17T14:28:32.095Z,3
2023-05-17T14:29:48.226Z,3.1
2023-05-17T14:31:04.351Z,2.9
2023-05-17T14:32:20.486Z,3.4
2023-05-17T14:33:36.649Z,3.3
2023-05-17T14:34:52.766Z,3.7
2023-05-17T14:36:08.909Z,3.8
2023-05-17T14:37:25.045Z,2.8
2023-05-17T14:38:41.166Z,2.8
2023-05-17T14:39:57.314Z,3.2
2023-05-17T14:41:13.459Z,1.9
2023-05-17T14:42:29.600Z,2.7
2023-05-17T14:43:45.726Z,2.3
2023-05-17T14:45:01.849Z,3.7
2023-05-17T14:46:18.002Z,3.6
2023-05-17T14:47:34.129Z,3.6
2023-05-17T14:48:50.282Z,2.3
2023-05-17T14:50:06.397Z,2.8
2023-05-17T14:51:22.532Z,2.6
2023-05-17T14:52:38.745Z,3
2023-05-17T14:53:53.985Z,3.3
2023-05-17T14:55:09.184Z,3.3
2023-05-17T14:56:25.336Z,2.5
2023-05-17T14:57:41.465Z,3.3
2023-05-17T14:58:57.612Z,2.7
2023-05-17T15:00:13.735Z,3.3
2023-05-17T15:01:29.866Z,2.3
2023-05-17T15:02:46.022Z,2.8
2023-05-17T15:04:02.146Z,4.1
2023-05-17T15:05:18.289Z,2.7
2023-05-17T15:06:34.408Z,2.3
2023-05-17T15:07:50.550Z,3.2
2023-05-17T15:09:06.706Z,2.3
2023-05-17T15:10:22.837Z,2.6
2023-05-17T15:11:38.955Z,2.5
2023-05-17T15:12:55.092Z,3.5
2023-05-17T15:14:11.237Z,2.8
2023-05-17T15:15:27.389Z,2.1
2023-05-17T15:16:43.516Z,3.8
2023-05-17T15:17:59.637Z,2.8
2023-05-17T15:19:15.780Z,2.9
2023-05-17T15:20:31.913Z,3
2023-05-17T15:21:48.064Z,3.6
2023-05-17T15:23:04.187Z,2.4
2023-05-17T15:24:20.319Z,3.5
2023-05-17T15:25:36.460Z,2.3
2023-05-17T15:26:52.656Z,3.8
2023-05-17T15:28:07.891Z,2.5
2023-05-17T15:29:23.088Z,4.1
2023-05-17T15:30:39.240Z,2.3
2023-05-17T15:31:55.370Z,2.9
2023-05-17T15:33:11.506Z,3.1
2023-05-17T15:34:27.637Z,2.7
2023-05-17T15:35:43.783Z,3.5
2023-05-17T15:36:59.909Z,3
2023-05-17T15:38:16.053Z,2.9
2023-05-17T15:39:32.197Z,2.4
2023-05-17T15:40:48.327Z,2
2023-05-17T15:42:04.468Z,3.3
2023-05-17T15:43:20.597Z,2.7
2023-05-17T15:44:36.739Z,2.8
2023-05-17T15:45:52.882Z,3.8
2023-05-17T15:47:09.002Z,2.1
2023-05-17T15:48:25.000Z,2.2
2023-05-17T15:49:41.274Z,4.1
2023-05-17T15:50:57.422Z,3.1
2023-05-17T15:52:13.545Z,2.4
2023-05-17T15:53:29.688Z,2.7
2023-05-17T15:54:45.817Z,2.4
2023-05-17T15:56:01.956Z,2.2
2023-05-17T15:57:18.093Z,2.3
2023-05-17T15:58:34.237Z,2.9
2023-05-17T15:59:50.366Z,3.2
2023-05-17T16:01:06.550Z,2.4
2023-05-17T16:02:21.790Z,3.9
2023-05-17T16:03:37.996Z,2.7
2023-05-17T16:04:53.203Z,2.4
2023-05-17T16:06:09.329Z,2.3
2023-05-17T16:07:25.470Z,2.8
2023-05-17T16:08:41.620Z,2.5
2023-05-17T16:09:57.745Z,2.6
2023-05-17T16:11:13.888Z,2.7
2023-05-17T16:12:30.003Z,3.1
2023-05-17T16:13:46.149Z,2.4
2023-05-17T16:15:02.292Z,3.5
2023-05-17T16:16:18.423Z,2.4
2023-05-17T16:17:34.557Z,3
2023-05-17T16:18:50.682Z,3.2
2023-05-17T16:20:06.839Z,4.1
2023-05-17T16:21:23.092Z,3.5
2023-05-17T16:22:39.225Z,2.3
2023-05-17T16:23:55.352Z,2.3
2023-05-17T16:25:11.501Z,2.5
2023-05-17T16:26:27.637Z,2.5
2023-05-17T16:27:43.770Z,2.4
2023-05-17T16:28:59.899Z,3.6
2023-05-17T16:30:16.197Z,2.8
2023-05-17T16:31:32.329Z,2.9
2023-05-17T16:32:48.471Z,2.9
2023-05-17T16:34:04.604Z,2.4
2023-05-17T16:35:20.746Z,2.3
2023-05-17T16:36:36.871Z,2.3
2023-05-17T16:37:52.997Z,2.1
2023-05-17T16:39:09.153Z,2.5
2023-05-17T16:40:25.408Z,2.3
2023-05-17T16:41:41.532Z,2.4
2023-05-17T16:42:57.679Z,2
2023-05-17T16:44:13.815Z,3.1
2023-05-17T16:45:29.961Z,3
2023-05-17T16:46:46.091Z,2.9
2023-05-17T16:48:02.224Z,2.8
2023-05-17T16:49:18.366Z,3.2
2023-05-17T16:50:34.482Z,2.6
2023-05-17T16:51:50.634Z,3.8
2023-05-17T16:53:06.776Z,2.2
2023-05-17T16:54:22.901Z,2.9
2023-05-17T16:55:39.030Z,2.3
2023-05-17T16:56:55.163Z,2.9
2023-05-17T16:58:11.000Z,2.1
2023-05-17T16:59:27.460Z,2.5
2023-05-17T17:00:43.582Z,2.7
2023-05-17T17:01:59.724Z,2.7
2023-05-17T17:03:15.848Z,2.2
2023-05-17T17:04:31.988Z,2.5
2023-05-17T17:05:48.138Z,1.6
2023-05-17T17:07:04.265Z,2.5
2023-05-17T17:08:20.401Z,3.6
2023-05-17T17:09:36.540Z,2.2
2023-05-17T17:10:52.670Z,2.2
2023-05-17T17:12:08.810Z,1.5
2023-05-17T17:13:24.946Z,2.3
2023-05-17T17:14:41.068Z,3.7
2023-05-17T17:15:57.211Z,2.7
2023-05-17T17:17:13.348Z,2.9
2023-05-17T17:18:29.499Z,3.1
2023-05-17T17:19:45.625Z,2.1
2023-05-17T17:21:01.756Z,2.7
2023-05-17T17:22:17.898Z,2.5
2023-05-17T17:23:34.038Z,2.5
2023-05-17T17:24:50.165Z,1.6
2023-05-17T17:26:06.306Z,2.4
2023-05-17T17:27:22.492Z,2
2023-05-17T17:28:37.709Z,2.6
2023-05-17T17:29:53.835Z,2
2023-05-17T17:31:09.971Z,2.8
2023-05-17T17:32:26.103Z,2.8
2023-05-17T17:33:42.232Z,2.6
2023-05-17T17:34:58.385Z,1.7
2023-05-17T17:36:14.514Z,2.8
2023-05-17T17:37:30.654Z,2.5
2023-05-17T17:38:46.796Z,2.1
2023-05-17T17:40:02.914Z,1.5
2023-05-17T17:41:19.066Z,2.5